createdAt,value
2019-02-04T00:02:14.615Z,1.00
2019-02-04T00:04:44.974Z,1.00
2019-02-04T00:07:15.308Z,1.00
2019-02-04T00:09:45.757Z,1.00
2019-02-04T00:12:16.153Z,1.00
2019-02-04T00:14:46.506Z,1.00
2019-02-04T00:17:16.849Z,1.00
2019-02-04T00:19:47.205Z,1.00
2019-02-04T00:22:17.582Z,1.00
2019-02-04T00:24:47.963Z,1.00
2019-02-04T00:27:18.354Z,1.00
2019-02-04T00:29:48.715Z,1.00
2019-02-04T00:32:19.150Z,1.00
2019-02-04T00:34:49.759Z,1.00
2019-02-04T00:37:20.137Z,1.00
2019-02-04T00:39:50.542Z,1.00
2019-02-04T00:42:20.954Z,1.00
2019-02-04T00:44:51.433Z,1.00
2019-02-04T00:47:22.281Z,1.00
2019-02-04T00:49:53.121Z,1.00
2019-02-04T00:52:23.481Z,1.00
2019-02-04T00:54:53.868Z,1.00
2019-02-04T00:57:24.290Z,1.00
2019-02-04T00:59:54.681Z,1.00
2019-02-04T01:02:25.063Z,1.00
2019-02-04T01:04:55.510Z,1.00
2019-02-04T01:07:25.895Z,1.00
2019-02-04T01:09:56.306Z,1.00
2019-02-04T01:12:26.774Z,1.00
2019-02-04T01:14:57.530Z,1.00
2019-02-04T01:17:27.967Z,1.00
2019-02-04T01:19:58.358Z,1.00
2019-02-04T01:22:28.715Z,1.00
2019-02-04T01:24:59.093Z,1.00
2019-02-04T01:27:29.949Z,1.00
2019-02-04T01:30:00.302Z,1.00
2019-02-04T01:32:30.685Z,1.00
2019-02-04T01:35:01.030Z,1.00
2019-02-04T01:37:31.481Z,1.00
2019-02-04T01:40:02.318Z,1.00
2019-02-04T01:42:32.695Z,1.00
2019-02-04T01:45:03.045Z,1.00
2019-02-04T01:47:33.436Z,1.00
2019-02-04T01:50:04.309Z,1.00
2019-02-04T01:52:34.789Z,1.00
2019-02-04T01:55:06.584Z,1.00
2019-02-04T01:57:36.973Z,1.00
2019-02-04T02:00:14.385Z,1.00
2019-02-04T02:02:44.810Z,1.00
2019-02-04T02:05:16.299Z,1.00
2019-02-04T02:07:46.663Z,1.00
2019-02-04T02:10:19.421Z,1.00
2019-02-04T02:12:49.964Z,1.00
2019-02-04T02:15:20.577Z,1.00
2019-02-04T02:17:51.536Z,1.00
2019-02-04T02:20:24.674Z,1.00
2019-02-04T02:22:55.148Z,1.00
2019-02-04T02:25:25.622Z,1.00
2019-02-04T02:27:56.019Z,1.00
2019-02-04T02:30:28.738Z,1.00
2019-02-04T02:32:59.138Z,1.00
2019-02-04T02:35:29.494Z,1.00
2019-02-04T02:37:59.913Z,1.00
2019-02-04T02:40:32.291Z,1.00
2019-02-04T02:43:03.305Z,1.00
2019-02-04T02:45:33.870Z,1.00
2019-02-04T02:48:04.683Z,1.00
2019-02-04T02:50:35.170Z,1.00
2019-02-04T02:53:05.583Z,1.00
2019-02-04T02:55:36.027Z,1.00
2019-02-04T02:58:06.385Z,1.00
2019-02-04T03:00:37.094Z,1.00
2019-02-04T03:03:07.485Z,1.00
2019-02-04T03:05:37.870Z,1.00
2019-02-04T03:08:08.367Z,1.00
2019-02-04T03:10:38.752Z,1.00
2019-02-04T03:13:09.143Z,1.00
2019-02-04T03:15:39.554Z,1.00
2019-02-04T03:18:09.962Z,1.00
2019-02-04T03:20:40.361Z,1.00
2019-02-04T03:23:10.777Z,1.00
2019-02-04T03:25:41.218Z,1.00
2019-02-04T03:28:11.637Z,1.00
2019-02-04T03:30:42.063Z,1.00
2019-02-04T03:33:12.494Z,1.00
2019-02-04T03:35:43.246Z,1.00
2019-02-04T03:38:13.670Z,1.00
2019-02-04T03:40:44.050Z,1.00
2019-02-04T03:43:14.438Z,1.00
2019-02-04T03:45:44.867Z,1.00
2019-02-04T03:48:15.227Z,1.00
2019-02-04T03:50:45.786Z,1.00
2019-02-04T03:53:16.323Z,1.00
2019-02-04T03:55:46.687Z,1.00
2019-02-04T03:58:17.054Z,1.00
2019-02-04T04:00:47.487Z,1.00
2019-02-04T04:03:17.941Z,1.00
2019-02-04T04:05:48.334Z,1.00
2019-02-04T04:08:18.703Z,1.00
2019-02-04T04:10:49.103Z,1.00
2019-02-04T04:13:19.535Z,1.00
2019-02-04T04:15:49.881Z,1.00
2019-02-04T04:18:20.288Z,1.00
2019-02-04T04:20:50.706Z,1.00
2019-02-04T04:23:21.146Z,1.00
2019-02-04T04:25:51.609Z,1.00
2019-02-04T04:28:22.368Z,1.00
2019-02-04T04:30:52.743Z,1.00
2019-02-04T04:33:23.179Z,1.00
2019-02-04T04:35:53.546Z,1.00
2019-02-04T04:38:23.951Z,1.00
2019-02-04T04:40:54.331Z,1.00
2019-02-04T04:43:24.723Z,1.00
2019-02-04T04:45:55.138Z,1.00
2019-02-04T04:48:26.811Z,1.00
2019-02-04T04:50:57.331Z,1.00
2019-02-04T04:53:27.766Z,1.00
2019-02-04T04:55:58.254Z,1.00
2019-02-04T04:58:28.642Z,5.20
2019-02-04T05:00:59.059Z,8.90
2019-02-04T05:03:29.464Z,8.00
2019-02-04T05:05:59.848Z,1.60
2019-02-04T05:08:30.817Z,1.00
2019-02-04T05:11:01.242Z,1.00
2019-02-04T05:13:31.666Z,1.00
2019-02-04T05:16:02.054Z,1.00
2019-02-04T05:18:38.129Z,1.00
2019-02-04T05:21:04.642Z,1.00
2019-02-04T05:23:35.027Z,1.00
2019-02-04T05:26:05.468Z,1.00
2019-02-04T05:28:35.928Z,1.00
2019-02-04T05:31:06.293Z,1.00
2019-02-04T05:33:37.157Z,1.00
2019-02-04T05:36:07.535Z,1.00
2019-02-04T05:38:37.944Z,1.00
2019-02-04T05:41:08.294Z,1.30
2019-02-04T05:43:38.653Z,3.80
2019-02-04T05:46:09.072Z,1.00
2019-02-04T05:48:49.093Z,1.60
2019-02-04T05:51:11.589Z,1.00
2019-02-04T05:53:42.052Z,1.00
2019-02-04T05:56:12.524Z,1.00
2019-02-04T05:58:42.882Z,1.00
2019-02-04T06:01:13.259Z,1.00
2019-02-04T06:03:43.609Z,1.00
2019-02-04T06:06:14.005Z,1.00
2019-02-04T06:08:44.414Z,1.00
2019-02-04T06:11:14.822Z,1.00
2019-02-04T06:13:45.478Z,1.00
2019-02-04T06:16:15.861Z,1.00
2019-02-04T06:18:46.209Z,11.30
2019-02-04T06:21:16.607Z,11.40
2019-02-04T06:23:46.969Z,13.20
2019-02-04T06:26:17.395Z,10.40
2019-02-04T06:28:47.850Z,9.30
2019-02-04T06:31:18.277Z,6.50
2019-02-04T06:33:48.642Z,1.00
2019-02-04T06:36:19.010Z,1.00
2019-02-04T06:38:49.497Z,1.00
2019-02-04T06:41:19.939Z,1.00
2019-02-04T06:43:50.293Z,1.00
2019-02-04T06:46:20.674Z,1.00
2019-02-04T06:48:51.038Z,11.90
2019-02-04T06:51:21.406Z,25.10
2019-02-04T06:53:52.158Z,25.90
2019-02-04T06:56:22.510Z,21.80
2019-02-04T06:58:52.971Z,10.70
2019-02-04T07:01:23.319Z,1.00
2019-02-04T07:03:53.865Z,4.30
2019-02-04T07:06:24.222Z,11.50
2019-02-04T07:08:54.556Z,9.70
2019-02-04T07:11:24.903Z,6.20
2019-02-04T07:13:55.290Z,6.40
2019-02-04T07:16:28.444Z,1.00
2019-02-04T07:18:58.892Z,3.40
2019-02-04T07:21:29.250Z,2.70
2019-02-04T07:23:59.634Z,1.00
2019-02-04T07:26:29.990Z,1.00
2019-02-04T07:29:11.935Z,1.00
2019-02-04T07:31:42.654Z,1.00
2019-02-04T07:34:13.097Z,1.00
2019-02-04T07:36:43.511Z,1.00
2019-02-04T07:39:13.898Z,1.00
2019-02-04T07:41:44.282Z,1.00
2019-02-04T07:44:14.653Z,1.00
2019-02-04T07:46:45.403Z,1.00
2019-02-04T07:49:15.781Z,1.00
2019-02-04T07:51:46.218Z,1.00
2019-02-04T07:54:16.591Z,1.00
2019-02-04T07:56:46.941Z,1.00
2019-02-04T07:59:17.702Z,1.00
2019-02-04T08:01:48.055Z,1.00
2019-02-04T08:04:18.454Z,1.00
2019-02-04T08:06:48.906Z,1.00
2019-02-04T08:09:19.281Z,99.90
2019-02-04T08:11:49.709Z,99.90
2019-02-04T08:14:20.080Z,1.00
2019-02-04T08:16:50.445Z,99.90
2019-02-04T08:19:20.814Z,99.90
2019-02-04T08:21:51.188Z,99.90
2019-02-04T08:24:21.559Z,28.10
2019-02-04T08:26:52.194Z,99.90
2019-02-04T08:29:22.572Z,99.90
2019-02-04T08:31:53.023Z,1.00
2019-02-04T08:34:23.365Z,1.00
2019-02-04T08:36:53.738Z,99.90
2019-02-04T08:39:24.207Z,99.90
2019-02-04T08:41:54.652Z,99.90
2019-02-04T08:44:25.008Z,1.00
2019-02-04T08:46:55.453Z,99.90
2019-02-04T08:49:25.821Z,1.00
2019-02-04T08:51:56.169Z,99.90
2019-02-04T08:54:26.946Z,41.70
2019-02-04T08:56:57.307Z,1.00
2019-02-04T08:59:27.756Z,1.00
2019-02-04T09:01:58.170Z,99.90
2019-02-04T09:04:28.640Z,99.90
2019-02-04T09:06:59.071Z,99.90
2019-02-04T09:09:29.713Z,99.90
2019-02-04T09:12:00.085Z,99.90
2019-02-04T09:14:30.460Z,99.90
2019-02-04T09:17:00.911Z,99.90
2019-02-04T09:19:31.357Z,99.90
2019-02-04T09:22:01.770Z,1.00
2019-02-04T09:24:32.236Z,99.90
2019-02-04T09:27:02.678Z,99.90
2019-02-04T09:29:33.076Z,99.90
2019-02-04T09:32:03.517Z,99.90
2019-02-04T09:34:33.898Z,99.90
2019-02-04T09:37:04.617Z,1.00
2019-02-04T09:39:35.162Z,1.00
2019-02-04T09:42:05.533Z,1.00
2019-02-04T09:44:35.956Z,1.00
2019-02-04T09:47:06.433Z,1.00
2019-02-04T09:49:36.810Z,99.90
2019-02-04T09:52:07.174Z,99.90
2019-02-04T09:54:37.590Z,1.00
2019-02-04T09:57:08.027Z,99.90
2019-02-04T09:59:38.500Z,1.00
2019-02-04T10:02:08.846Z,1.00
2019-02-04T10:04:39.558Z,1.00
2019-02-04T10:07:10.009Z,1.00
2019-02-04T10:09:40.354Z,99.90
2019-02-04T10:12:10.709Z,99.90
2019-02-04T10:14:41.069Z,1.00
2019-02-04T10:17:12.256Z,99.90
2019-02-04T10:19:42.690Z,99.90
2019-02-04T10:22:13.139Z,99.90
2019-02-04T10:24:43.549Z,99.90
2019-02-04T10:27:13.994Z,99.90
2019-02-04T10:29:44.441Z,99.90
2019-02-04T10:32:14.872Z,99.90
2019-02-04T10:34:45.226Z,99.90
2019-02-04T10:37:15.599Z,81.60
2019-02-04T10:39:45.945Z,71.70
2019-02-04T10:42:16.383Z,9.90
2019-02-04T10:44:47.128Z,99.90
2019-02-04T10:47:17.605Z,1.00
2019-02-04T10:49:48.028Z,19.30
2019-02-04T10:52:18.441Z,1.00
2019-02-04T10:54:48.883Z,1.00
2019-02-04T10:57:19.752Z,1.00
2019-02-04T10:59:50.156Z,1.00
2019-02-04T11:02:20.625Z,1.00
2019-02-04T11:04:51.058Z,99.90
2019-02-04T11:07:21.515Z,99.90
2019-02-04T11:09:52.002Z,99.90
2019-02-04T11:12:22.478Z,99.90
2019-02-04T11:14:52.842Z,99.90
2019-02-04T11:17:23.293Z,99.90
2019-02-04T11:19:53.693Z,99.90
2019-02-04T11:22:24.082Z,99.90
2019-02-04T11:24:54.837Z,99.90
2019-02-04T11:27:25.268Z,99.90
2019-02-04T11:29:55.697Z,99.90
2019-02-04T11:32:26.069Z,99.90
2019-02-04T11:34:56.485Z,99.90
2019-02-04T11:37:27.206Z,99.90
2019-02-04T11:39:57.717Z,99.90
2019-02-04T11:42:28.111Z,99.90
2019-02-04T11:44:58.504Z,99.90
2019-02-04T11:47:29.058Z,99.90
2019-02-04T11:49:59.455Z,99.90
2019-02-04T11:52:29.816Z,99.90
2019-02-04T11:55:00.268Z,99.90
2019-02-04T11:57:30.636Z,99.90
2019-02-04T12:00:01.001Z,99.90
2019-02-04T12:02:34.621Z,99.90
2019-02-04T12:05:03.455Z,99.90
2019-02-04T12:07:33.893Z,99.90
2019-02-04T12:10:05.313Z,99.90
2019-02-04T12:12:35.687Z,99.90
2019-02-04T12:15:09.166Z,99.90
2019-02-04T12:17:39.793Z,99.90
2019-02-04T12:20:12.056Z,99.90
2019-02-04T12:22:42.470Z,99.90
2019-02-04T12:25:14.547Z,99.90
2019-02-04T12:27:44.917Z,99.90
2019-02-04T12:30:24.686Z,99.90
2019-02-04T12:32:55.745Z,99.90
2019-02-04T12:35:26.413Z,99.90
2019-02-04T12:37:56.846Z,99.90
2019-02-04T12:40:27.309Z,99.90
2019-02-04T12:42:57.718Z,99.90
2019-02-04T12:45:30.295Z,99.90
2019-02-04T12:48:01.111Z,99.90
2019-02-04T12:50:31.957Z,99.90
2019-02-04T12:53:02.467Z,99.90
2019-02-04T12:55:33.454Z,99.90
2019-02-04T12:58:03.940Z,99.90
2019-02-04T13:00:34.635Z,99.90
2019-02-04T13:03:05.446Z,99.90
2019-02-04T13:05:38.578Z,99.90
2019-02-04T13:08:10.201Z,99.90
2019-02-04T13:10:40.676Z,99.90
2019-02-04T13:13:13.639Z,99.90
2019-02-04T13:15:44.016Z,99.90
2019-02-04T13:18:14.371Z,99.90
2019-02-04T13:20:45.130Z,99.90
2019-02-04T13:23:15.500Z,99.90
2019-02-04T13:25:46.030Z,99.90
2019-02-04T13:28:19.429Z,99.90
2019-02-04T13:30:49.903Z,99.90
2019-02-04T13:33:20.820Z,99.90
2019-02-04T13:35:51.257Z,99.90
2019-02-04T13:38:21.630Z,99.90
2019-02-04T13:40:52.001Z,99.90
2019-02-04T13:43:22.381Z,99.90
2019-02-04T13:45:52.730Z,99.90
2019-02-04T13:48:23.598Z,99.90
2019-02-04T13:50:54.062Z,99.90
2019-02-04T13:53:26.950Z,99.90
2019-02-04T13:55:56.612Z,99.90
2019-02-04T13:58:26.965Z,99.90
2019-02-04T14:00:57.331Z,99.90
2019-02-04T14:03:27.751Z,99.90
2019-02-04T14:05:58.153Z,99.90
2019-02-04T14:08:28.547Z,99.90
2019-02-04T14:10:59.042Z,99.90
2019-02-04T14:13:29.488Z,99.90
2019-02-04T14:15:59.975Z,99.90
2019-02-04T14:18:30.345Z,99.90
2019-02-04T14:21:01.231Z,99.90
2019-02-04T14:23:31.622Z,99.90
2019-02-04T14:26:02.270Z,99.90
2019-02-04T14:28:32.697Z,99.90
2019-02-04T14:31:03.072Z,99.90
2019-02-04T14:33:33.443Z,99.90
2019-02-04T14:36:03.805Z,99.90
2019-02-04T14:38:34.545Z,99.90
2019-02-04T14:41:04.937Z,99.90
2019-02-04T14:43:43.995Z,99.90
2019-02-04T14:46:57.834Z,99.90
2019-02-04T14:50:06.496Z,99.90
2019-02-04T14:53:17.606Z,99.90
2019-02-04T14:56:15.797Z,99.90
2019-02-04T14:59:03.358Z,99.90
2019-02-04T15:02:09.675Z,99.90
2019-02-04T15:05:21.201Z,99.90
2019-02-04T15:08:19.510Z,99.90
2019-02-04T15:11:01.358Z,99.90
2019-02-04T15:14:15.540Z,99.90
2019-02-04T15:17:12.455Z,99.90
2019-02-04T15:20:07.067Z,99.90
2019-02-04T15:23:14.238Z,99.90
2019-02-04T15:26:02.790Z,99.90
2019-02-04T15:28:58.231Z,99.90
2019-02-04T15:32:12.334Z,99.90
2019-02-04T15:35:09.785Z,99.90
2019-02-04T15:37:59.145Z,99.90
2019-02-04T15:41:16.818Z,99.90
2019-02-04T15:44:11.157Z,99.90
2019-02-04T15:47:11.712Z,99.90
2019-02-04T15:50:17.810Z,99.90
2019-02-04T15:52:48.561Z,99.90
2019-02-04T15:55:20.618Z,99.90
2019-02-04T15:57:51.015Z,99.90
2019-02-04T16:00:21.424Z,99.90
2019-02-04T16:02:51.873Z,99.90
2019-02-04T16:05:22.721Z,99.90
2019-02-04T16:07:53.075Z,99.90
2019-02-04T16:10:23.462Z,99.90
2019-02-04T16:12:53.875Z,99.90
2019-02-04T16:15:24.327Z,99.90
2019-02-04T16:17:54.702Z,99.90
2019-02-04T16:20:25.457Z,99.90
2019-02-04T16:22:58.826Z,99.90
2019-02-04T16:25:27.892Z,99.90
2019-02-04T16:27:58.259Z,99.90
2019-02-04T16:30:29.049Z,99.90
2019-02-04T16:32:59.962Z,99.90
2019-02-04T16:35:30.363Z,99.90
2019-02-04T16:38:00.830Z,99.90
2019-02-04T16:40:31.312Z,99.90
2019-02-04T16:43:01.702Z,99.90
2019-02-04T16:45:32.451Z,99.90
2019-02-04T16:48:02.866Z,99.90
2019-02-04T16:50:33.514Z,99.90
2019-02-04T16:53:10.526Z,99.90
2019-02-04T16:55:36.129Z,99.90
2019-02-04T16:58:06.536Z,99.90
2019-02-04T17:00:36.942Z,99.90
2019-02-04T17:03:07.364Z,99.90
2019-02-04T17:05:37.799Z,99.90
2019-02-04T17:08:08.290Z,99.90
2019-02-04T17:10:38.745Z,99.90
2019-02-04T17:13:09.493Z,99.90
2019-02-04T17:15:39.940Z,99.90
2019-02-04T17:18:10.413Z,99.90
2019-02-04T17:20:41.163Z,99.90
2019-02-04T17:23:22.103Z,99.90
2019-02-04T17:25:43.633Z,99.90
2019-02-04T17:28:14.014Z,99.90
2019-02-04T17:30:44.498Z,99.90
2019-02-04T17:33:14.918Z,99.90
2019-02-04T17:35:45.346Z,99.90
2019-02-04T17:38:15.793Z,99.90
2019-02-04T17:40:46.366Z,99.90
2019-02-04T17:43:16.778Z,99.90
2019-02-04T17:45:47.165Z,99.90
2019-02-04T17:48:17.714Z,99.90
2019-02-04T17:50:48.094Z,99.90
2019-02-04T17:53:18.939Z,99.90
2019-02-04T17:55:49.299Z,99.90
2019-02-04T17:58:19.706Z,99.90
2019-02-04T18:00:51.931Z,99.90
2019-02-04T18:03:22.445Z,99.90
2019-02-04T18:05:52.865Z,99.90
2019-02-04T18:08:23.276Z,99.90
2019-02-04T18:10:53.633Z,99.90
2019-02-04T18:13:24.211Z,99.90
2019-02-04T18:15:54.663Z,99.90
2019-02-04T18:18:25.084Z,99.90
2019-02-04T18:20:55.653Z,99.90
2019-02-04T18:23:26.086Z,99.90
2019-02-04T18:25:56.517Z,99.90
2019-02-04T18:28:26.902Z,99.90
2019-02-04T18:30:57.358Z,99.90
2019-02-04T18:33:27.721Z,99.90
2019-02-04T18:35:58.085Z,1.00
2019-02-04T18:38:28.485Z,1.00
2019-02-04T18:40:59.361Z,1.00
2019-02-04T18:43:29.843Z,1.00
2019-02-04T18:46:00.306Z,1.00
2019-02-04T18:48:31.081Z,1.00
2019-02-04T18:51:01.671Z,1.00
2019-02-04T18:53:32.140Z,1.00
2019-02-04T18:56:02.910Z,1.00
2019-02-04T18:58:33.396Z,1.00
2019-02-04T19:01:04.039Z,1.00
2019-02-04T19:03:34.498Z,1.00
2019-02-04T19:06:04.950Z,1.00
2019-02-04T19:08:35.322Z,1.00
2019-02-04T19:11:06.181Z,1.00
2019-02-04T19:13:36.714Z,1.00
2019-02-04T19:16:07.108Z,1.00
2019-02-04T19:18:37.590Z,31.70
2019-02-04T19:21:08.089Z,32.40
2019-02-04T19:23:38.494Z,7.70
2019-02-04T19:26:08.965Z,1.00
2019-02-04T19:28:39.408Z,1.00
2019-02-04T19:31:25.125Z,1.00
2019-02-04T19:33:55.590Z,1.00
2019-02-04T19:36:26.408Z,48.40
2019-02-04T19:38:56.789Z,99.90
2019-02-04T19:41:27.186Z,1.00
2019-02-04T19:43:57.614Z,1.00
2019-02-04T19:46:28.022Z,1.00
2019-02-04T19:48:58.384Z,84.80
2019-02-04T19:51:28.945Z,67.30
2019-02-04T19:53:59.349Z,25.60
2019-02-04T19:56:30.032Z,99.90
2019-02-04T19:59:00.461Z,1.00
2019-02-04T20:01:30.870Z,1.00
2019-02-04T20:04:01.417Z,99.90
2019-02-04T20:06:31.834Z,99.90
2019-02-04T20:09:05.136Z,46.00
2019-02-04T20:11:34.320Z,1.00
2019-02-04T20:14:05.009Z,1.00
2019-02-04T20:16:35.812Z,99.90
2019-02-04T20:19:06.378Z,99.90
2019-02-04T20:21:36.833Z,1.00
2019-02-04T20:24:07.409Z,1.00
2019-02-04T20:26:37.787Z,98.20
2019-02-04T20:29:08.189Z,99.90
2019-02-04T20:31:38.657Z,99.90
2019-02-04T20:34:09.071Z,99.90
2019-02-04T20:36:39.525Z,99.90
2019-02-04T20:39:10.789Z,99.90
2019-02-04T20:41:41.213Z,70.00
2019-02-04T20:44:12.062Z,99.90
2019-02-04T20:46:42.448Z,1.00
2019-02-04T20:49:12.941Z,99.90
2019-02-04T20:51:43.370Z,99.90
2019-02-04T20:54:19.709Z,1.00
2019-02-04T20:56:45.894Z,1.00
2019-02-04T20:59:16.327Z,1.00
2019-02-04T21:01:46.788Z,1.00
2019-02-04T21:04:17.255Z,46.50
2019-02-04T21:06:55.722Z,1.00
2019-02-04T21:09:19.725Z,1.00
2019-02-04T21:11:50.491Z,99.90
2019-02-04T21:14:20.890Z,1.00
2019-02-04T21:16:54.306Z,1.00
2019-02-04T21:19:24.759Z,99.90
2019-02-04T21:21:55.172Z,1.00
2019-02-04T21:24:26.018Z,23.30
2019-02-04T21:26:56.471Z,1.00
2019-02-04T21:29:26.854Z,99.90
2019-02-04T21:31:57.331Z,99.90
2019-02-04T21:34:27.717Z,99.90
2019-02-04T21:36:58.143Z,99.90
2019-02-04T21:39:28.510Z,1.00
2019-02-04T21:41:58.934Z,1.00
2019-02-04T21:44:29.297Z,1.00
2019-02-04T21:46:59.686Z,1.00
2019-02-04T21:49:30.047Z,1.00
2019-02-04T21:52:00.724Z,1.00
2019-02-04T21:54:31.133Z,99.90
2019-02-04T21:57:01.525Z,99.90
2019-02-04T21:59:31.918Z,1.00
2019-02-04T22:02:02.359Z,99.90
2019-02-04T22:04:32.715Z,99.90
2019-02-04T22:07:03.094Z,1.00
2019-02-04T22:09:33.589Z,99.90
2019-02-04T22:12:04.090Z,99.90
2019-02-04T22:14:34.458Z,1.00
2019-02-04T22:17:04.873Z,99.90
2019-02-04T22:19:35.285Z,99.90
2019-02-04T22:22:05.979Z,46.50
2019-02-04T22:24:37.237Z,99.90
2019-02-04T22:27:07.658Z,1.00
2019-02-04T22:29:38.032Z,1.00
2019-02-04T22:32:08.573Z,99.90
2019-02-04T22:34:39.334Z,1.00
2019-02-04T22:37:11.394Z,99.90
2019-02-04T22:39:41.787Z,99.90
2019-02-04T22:42:12.254Z,97.70
2019-02-04T22:44:42.630Z,66.70
2019-02-04T22:47:13.470Z,99.90
2019-02-04T22:49:43.897Z,99.90
2019-02-04T22:52:14.280Z,1.00
2019-02-04T22:54:44.692Z,99.90
2019-02-04T22:57:15.067Z,99.90
2019-02-04T22:59:45.438Z,1.00
2019-02-04T23:02:15.793Z,99.90
2019-02-04T23:04:46.181Z,99.90
2019-02-04T23:07:16.570Z,99.90
2019-02-04T23:09:46.960Z,99.90
2019-02-04T23:12:17.329Z,99.90
2019-02-04T23:14:47.982Z,1.00
2019-02-04T23:17:18.342Z,99.90
2019-02-04T23:19:48.771Z,1.00
2019-02-04T23:22:19.142Z,1.00
2019-02-04T23:24:49.498Z,1.00
2019-02-04T23:27:20.137Z,1.00
2019-02-04T23:29:50.491Z,1.00
2019-02-04T23:32:20.855Z,99.50
2019-02-04T23:34:51.293Z,99.90
2019-02-04T23:37:21.683Z,99.90
2019-02-04T23:39:52.077Z,99.90
2019-02-04T23:42:22.535Z,99.90
2019-02-04T23:44:52.902Z,1.00
2019-02-04T23:47:23.270Z,1.00
2019-02-04T23:49:53.658Z,1.00
2019-02-04T23:52:24.022Z,1.00
2019-02-04T23:54:54.677Z,99.90
2019-02-04T23:57:25.045Z,1.00
2019-02-04T23:59:55.513Z,1.00
